<?xml version="1.0" encoding="UTF-8" standalone="no" ?>
<gpx xmlns="http://www.topografix.com/GPX/1/1" xmlns:xsi="http://www.w3.org/2001/XMLSchema-instance" xsi:schemaLocation="http://www.topografix.com/GPX/1/1 http://www.topografix.com/GPX/1/1/gpx.xsd" version="1.1" creator="VisuGPX - https://www.visugpx.com">
  <metadata>
    <name>18_km_rando</name>
  </metadata>
  <trk>
    <name><![CDATA[18 km rando 2026-23051173]]></name>
    <extensions>
      <line xmlns="http://www.topografix.com/GPX/gpx_style/0/2">
        <color>0000FF</color>
        <width>4</width>
      </line>
    </extensions>
    <trkseg>
      <trkpt lat="45.9997" lon="4.17632">
        <ele>437</ele>
        <time>2026-02-01T12:04:47Z</time>
      </trkpt>
      <trkpt lat="45.99943" lon="4.17641">
        <ele>436</ele>
        <time>2026-02-01T12:05:24Z</time>
      </trkpt>
      <trkpt lat="45.99924" lon="4.17643">
        <ele>436</ele>
        <time>2026-02-01T12:05:49Z</time>
      </trkpt>
      <trkpt lat="45.99907" lon="4.17643">
        <ele>435</ele>
        <time>2026-02-01T12:06:12Z</time>
      </trkpt>
      <trkpt lat="45.9985" lon="4.1761">
        <ele>436</ele>
        <time>2026-02-01T12:07:34Z</time>
      </trkpt>
      <trkpt lat="45.99824" lon="4.1759">
        <ele>436</ele>
        <time>2026-02-01T12:08:13Z</time>
      </trkpt>
      <trkpt lat="45.99792" lon="4.17569">
        <ele>436</ele>
        <time>2026-02-01T12:09:00Z</time>
      </trkpt>
      <trkpt lat="45.9972" lon="4.1753">
        <ele>435</ele>
        <time>2026-02-01T12:10:43Z</time>
      </trkpt>
      <trkpt lat="45.99608" lon="4.17473">
        <ele>429</ele>
        <time>2026-02-01T12:13:22Z</time>
      </trkpt>
      <trkpt lat="45.99598" lon="4.17466">
        <ele>428</ele>
        <time>2026-02-01T12:13:36Z</time>
      </trkpt>
      <trkpt lat="45.99595" lon="4.17464">
        <ele>428</ele>
        <time>2026-02-01T12:13:41Z</time>
      </trkpt>
      <trkpt lat="45.99584" lon="4.17451">
        <ele>428</ele>
        <time>2026-02-01T12:14:00Z</time>
      </trkpt>
      <trkpt lat="45.99575" lon="4.17434">
        <ele>427</ele>
        <time>2026-02-01T12:14:20Z</time>
      </trkpt>
      <trkpt lat="45.99554" lon="4.17374">
        <ele>427</ele>
        <time>2026-02-01T12:15:22Z</time>
      </trkpt>
      <trkpt lat="45.99543" lon="4.17342">
        <ele>427</ele>
        <time>2026-02-01T12:15:55Z</time>
      </trkpt>
      <trkpt lat="45.99536" lon="4.17324">
        <ele>427</ele>
        <time>2026-02-01T12:16:14Z</time>
      </trkpt>
      <trkpt lat="45.99528" lon="4.17324">
        <ele>426</ele>
        <time>2026-02-01T12:16:25Z</time>
      </trkpt>
      <trkpt lat="45.99508" lon="4.17303">
        <ele>425</ele>
        <time>2026-02-01T12:16:58Z</time>
      </trkpt>
      <trkpt lat="45.9947" lon="4.17264">
        <ele>421</ele>
        <time>2026-02-01T12:18:00Z</time>
      </trkpt>
      <trkpt lat="45.99445" lon="4.17238">
        <ele>418</ele>
        <time>2026-02-01T12:18:41Z</time>
      </trkpt>
      <trkpt lat="45.99436" lon="4.17227">
        <ele>417</ele>
        <time>2026-02-01T12:18:57Z</time>
      </trkpt>
      <trkpt lat="45.99408" lon="4.17178">
        <ele>416</ele>
        <time>2026-02-01T12:19:56Z</time>
      </trkpt>
      <trkpt lat="45.9932" lon="4.17028">
        <ele>411</ele>
        <time>2026-02-01T12:22:58Z</time>
      </trkpt>
      <trkpt lat="45.99315" lon="4.17012">
        <ele>412</ele>
        <time>2026-02-01T12:23:14Z</time>
      </trkpt>
      <trkpt lat="45.99303" lon="4.16902">
        <ele>411</ele>
        <time>2026-02-01T12:24:57Z</time>
      </trkpt>
      <trkpt lat="45.99302" lon="4.16899">
        <ele>411</ele>
        <time>2026-02-01T12:25:00Z</time>
      </trkpt>
      <trkpt lat="45.99301" lon="4.16883">
        <ele>410</ele>
        <time>2026-02-01T12:25:15Z</time>
      </trkpt>
      <trkpt lat="45.99282" lon="4.16762">
        <ele>405</ele>
        <time>2026-02-01T12:27:10Z</time>
      </trkpt>
      <trkpt lat="45.99257" lon="4.16591">
        <ele>397</ele>
        <time>2026-02-01T12:29:52Z</time>
      </trkpt>
      <trkpt lat="45.99251" lon="4.16562">
        <ele>396</ele>
        <time>2026-02-01T12:30:20Z</time>
      </trkpt>
      <trkpt lat="45.99239" lon="4.16536">
        <ele>395</ele>
        <time>2026-02-01T12:30:49Z</time>
      </trkpt>
      <trkpt lat="45.99223" lon="4.16512">
        <ele>394</ele>
        <time>2026-02-01T12:31:20Z</time>
      </trkpt>
      <trkpt lat="45.99203" lon="4.16496">
        <ele>393</ele>
        <time>2026-02-01T12:31:51Z</time>
      </trkpt>
      <trkpt lat="45.99194" lon="4.16492">
        <ele>393</ele>
        <time>2026-02-01T12:32:03Z</time>
      </trkpt>
      <trkpt lat="45.99204" lon="4.1649">
        <ele>393</ele>
        <time>2026-02-01T12:32:17Z</time>
      </trkpt>
      <trkpt lat="45.99264" lon="4.16499">
        <ele>393</ele>
        <time>2026-02-01T12:33:37Z</time>
      </trkpt>
      <trkpt lat="45.99305" lon="4.1652">
        <ele>393</ele>
        <time>2026-02-01T12:34:35Z</time>
      </trkpt>
      <trkpt lat="45.99336" lon="4.16543">
        <ele>394</ele>
        <time>2026-02-01T12:35:22Z</time>
      </trkpt>
      <trkpt lat="45.99373" lon="4.16555">
        <ele>397</ele>
        <time>2026-02-01T12:36:12Z</time>
      </trkpt>
      <trkpt lat="45.99415" lon="4.16539">
        <ele>398</ele>
        <time>2026-02-01T12:37:10Z</time>
      </trkpt>
      <trkpt lat="45.99455" lon="4.16511">
        <ele>398</ele>
        <time>2026-02-01T12:38:10Z</time>
      </trkpt>
      <trkpt lat="45.99471" lon="4.16508">
        <ele>398</ele>
        <time>2026-02-01T12:38:31Z</time>
      </trkpt>
      <trkpt lat="45.99492" lon="4.16507">
        <ele>399</ele>
        <time>2026-02-01T12:38:59Z</time>
      </trkpt>
      <trkpt lat="45.99501" lon="4.16507">
        <ele>400</ele>
        <time>2026-02-01T12:39:11Z</time>
      </trkpt>
      <trkpt lat="45.99502" lon="4.165">
        <ele>399</ele>
        <time>2026-02-01T12:39:18Z</time>
      </trkpt>
      <trkpt lat="45.99516" lon="4.16499">
        <ele>399</ele>
        <time>2026-02-01T12:39:37Z</time>
      </trkpt>
      <trkpt lat="45.99538" lon="4.1649">
        <ele>399</ele>
        <time>2026-02-01T12:40:07Z</time>
      </trkpt>
      <trkpt lat="45.99554" lon="4.16481">
        <ele>400</ele>
        <time>2026-02-01T12:40:30Z</time>
      </trkpt>
      <trkpt lat="45.9957" lon="4.1647">
        <ele>400</ele>
        <time>2026-02-01T12:40:54Z</time>
      </trkpt>
      <trkpt lat="45.9965" lon="4.16416">
        <ele>396</ele>
        <time>2026-02-01T12:42:52Z</time>
      </trkpt>
      <trkpt lat="45.99725" lon="4.16397">
        <ele>392</ele>
        <time>2026-02-01T12:44:33Z</time>
      </trkpt>
      <trkpt lat="45.99759" lon="4.16388">
        <ele>390</ele>
        <time>2026-02-01T12:45:19Z</time>
      </trkpt>
      <trkpt lat="45.99789" lon="4.16438">
        <ele>393</ele>
        <time>2026-02-01T12:46:21Z</time>
      </trkpt>
      <trkpt lat="45.99838" lon="4.16453">
        <ele>394</ele>
        <time>2026-02-01T12:47:28Z</time>
      </trkpt>
      <trkpt lat="45.99868" lon="4.16429">
        <ele>399</ele>
        <time>2026-02-01T12:48:13Z</time>
      </trkpt>
      <trkpt lat="45.99884" lon="4.16358">
        <ele>399</ele>
        <time>2026-02-01T12:49:23Z</time>
      </trkpt>
      <trkpt lat="45.99904" lon="4.16281">
        <ele>404</ele>
        <time>2026-02-01T12:50:39Z</time>
      </trkpt>
      <trkpt lat="45.99927" lon="4.16251">
        <ele>411</ele>
        <time>2026-02-01T12:51:20Z</time>
      </trkpt>
      <trkpt lat="45.99951" lon="4.16191">
        <ele>414</ele>
        <time>2026-02-01T12:52:24Z</time>
      </trkpt>
      <trkpt lat="45.99976" lon="4.1615">
        <ele>417</ele>
        <time>2026-02-01T12:53:15Z</time>
      </trkpt>
      <trkpt lat="46.00002" lon="4.1609">
        <ele>418</ele>
        <time>2026-02-01T12:54:21Z</time>
      </trkpt>
      <trkpt lat="46.00007" lon="4.16087">
        <ele>418</ele>
        <time>2026-02-01T12:54:28Z</time>
      </trkpt>
      <trkpt lat="46.00022" lon="4.16037">
        <ele>418</ele>
        <time>2026-02-01T12:55:18Z</time>
      </trkpt>
      <trkpt lat="46.00031" lon="4.15987">
        <ele>417</ele>
        <time>2026-02-01T12:56:06Z</time>
      </trkpt>
      <trkpt lat="46.0004" lon="4.15938">
        <ele>418</ele>
        <time>2026-02-01T12:56:53Z</time>
      </trkpt>
      <trkpt lat="46.00044" lon="4.15908">
        <ele>417</ele>
        <time>2026-02-01T12:57:21Z</time>
      </trkpt>
      <trkpt lat="46.0005" lon="4.15878">
        <ele>416</ele>
        <time>2026-02-01T12:57:50Z</time>
      </trkpt>
      <trkpt lat="46.00062" lon="4.15838">
        <ele>415</ele>
        <time>2026-02-01T12:58:31Z</time>
      </trkpt>
      <trkpt lat="46.00077" lon="4.158">
        <ele>414</ele>
        <time>2026-02-01T12:59:11Z</time>
      </trkpt>
      <trkpt lat="46.00129" lon="4.15709">
        <ele>413</ele>
        <time>2026-02-01T13:01:00Z</time>
      </trkpt>
      <trkpt lat="46.00153" lon="4.15671">
        <ele>413</ele>
        <time>2026-02-01T13:01:48Z</time>
      </trkpt>
      <trkpt lat="46.00167" lon="4.15635">
        <ele>412</ele>
        <time>2026-02-01T13:02:26Z</time>
      </trkpt>
      <trkpt lat="46.00173" lon="4.15624">
        <ele>412</ele>
        <time>2026-02-01T13:02:39Z</time>
      </trkpt>
      <trkpt lat="46.00191" lon="4.15603">
        <ele>413</ele>
        <time>2026-02-01T13:03:10Z</time>
      </trkpt>
      <trkpt lat="46.00216" lon="4.1558">
        <ele>414</ele>
        <time>2026-02-01T13:03:50Z</time>
      </trkpt>
      <trkpt lat="46.00337" lon="4.15521">
        <ele>414</ele>
        <time>2026-02-01T13:06:40Z</time>
      </trkpt>
      <trkpt lat="46.00371" lon="4.15497">
        <ele>412</ele>
        <time>2026-02-01T13:07:31Z</time>
      </trkpt>
      <trkpt lat="46.00415" lon="4.1547">
        <ele>407</ele>
        <time>2026-02-01T13:08:35Z</time>
      </trkpt>
      <trkpt lat="46.00445" lon="4.15455">
        <ele>405</ele>
        <time>2026-02-01T13:09:17Z</time>
      </trkpt>
      <trkpt lat="46.00482" lon="4.15445">
        <ele>405</ele>
        <time>2026-02-01T13:10:07Z</time>
      </trkpt>
      <trkpt lat="46.00491" lon="4.15441">
        <ele>405</ele>
        <time>2026-02-01T13:10:20Z</time>
      </trkpt>
      <trkpt lat="46.00501" lon="4.15436">
        <ele>405</ele>
        <time>2026-02-01T13:10:34Z</time>
      </trkpt>
      <trkpt lat="46.00548" lon="4.15403">
        <ele>407</ele>
        <time>2026-02-01T13:11:44Z</time>
      </trkpt>
      <trkpt lat="46.00549" lon="4.15397">
        <ele>406</ele>
        <time>2026-02-01T13:11:49Z</time>
      </trkpt>
      <trkpt lat="46.00549" lon="4.15388">
        <ele>406</ele>
        <time>2026-02-01T13:11:58Z</time>
      </trkpt>
      <trkpt lat="46.00543" lon="4.15374">
        <ele>406</ele>
        <time>2026-02-01T13:12:13Z</time>
      </trkpt>
      <trkpt lat="46.00535" lon="4.15355">
        <ele>405</ele>
        <time>2026-02-01T13:12:34Z</time>
      </trkpt>
      <trkpt lat="46.00534" lon="4.15348">
        <ele>405</ele>
        <time>2026-02-01T13:12:40Z</time>
      </trkpt>
      <trkpt lat="46.00534" lon="4.15338">
        <ele>404</ele>
        <time>2026-02-01T13:12:50Z</time>
      </trkpt>
      <trkpt lat="46.00545" lon="4.15309">
        <ele>405</ele>
        <time>2026-02-01T13:13:20Z</time>
      </trkpt>
      <trkpt lat="46.0056" lon="4.15253">
        <ele>406</ele>
        <time>2026-02-01T13:14:16Z</time>
      </trkpt>
      <trkpt lat="46.00564" lon="4.15227">
        <ele>406</ele>
        <time>2026-02-01T13:14:40Z</time>
      </trkpt>
      <trkpt lat="46.00525" lon="4.15195">
        <ele>408</ele>
        <time>2026-02-01T13:15:40Z</time>
      </trkpt>
      <trkpt lat="46.00515" lon="4.1519">
        <ele>408</ele>
        <time>2026-02-01T13:15:55Z</time>
      </trkpt>
      <trkpt lat="46.00456" lon="4.15135">
        <ele>408</ele>
        <time>2026-02-01T13:17:28Z</time>
      </trkpt>
      <trkpt lat="46.0039" lon="4.15077">
        <ele>406</ele>
        <time>2026-02-01T13:19:12Z</time>
      </trkpt>
      <trkpt lat="46.00379" lon="4.15065">
        <ele>405</ele>
        <time>2026-02-01T13:19:30Z</time>
      </trkpt>
      <trkpt lat="46.00293" lon="4.14945">
        <ele>398</ele>
        <time>2026-02-01T13:22:10Z</time>
      </trkpt>
      <trkpt lat="46.00286" lon="4.14939">
        <ele>398</ele>
        <time>2026-02-01T13:22:21Z</time>
      </trkpt>
      <trkpt lat="46.00253" lon="4.14911">
        <ele>397</ele>
        <time>2026-02-01T13:23:12Z</time>
      </trkpt>
      <trkpt lat="46.00209" lon="4.14872">
        <ele>397</ele>
        <time>2026-02-01T13:24:21Z</time>
      </trkpt>
      <trkpt lat="46.00201" lon="4.14867">
        <ele>396</ele>
        <time>2026-02-01T13:24:32Z</time>
      </trkpt>
      <trkpt lat="46.00184" lon="4.14863">
        <ele>396</ele>
        <time>2026-02-01T13:24:55Z</time>
      </trkpt>
      <trkpt lat="46.00177" lon="4.14863">
        <ele>396</ele>
        <time>2026-02-01T13:25:05Z</time>
      </trkpt>
      <trkpt lat="46.00154" lon="4.14867">
        <ele>395</ele>
        <time>2026-02-01T13:25:36Z</time>
      </trkpt>
      <trkpt lat="46.00142" lon="4.14866">
        <ele>394</ele>
        <time>2026-02-01T13:25:52Z</time>
      </trkpt>
      <trkpt lat="46.00122" lon="4.14858">
        <ele>394</ele>
        <time>2026-02-01T13:26:19Z</time>
      </trkpt>
      <trkpt lat="46.00116" lon="4.14853">
        <ele>394</ele>
        <time>2026-02-01T13:26:29Z</time>
      </trkpt>
      <trkpt lat="46.00109" lon="4.14843">
        <ele>394</ele>
        <time>2026-02-01T13:26:42Z</time>
      </trkpt>
      <trkpt lat="46.00103" lon="4.1483">
        <ele>394</ele>
        <time>2026-02-01T13:26:56Z</time>
      </trkpt>
      <trkpt lat="46.00084" lon="4.14778">
        <ele>395</ele>
        <time>2026-02-01T13:27:51Z</time>
      </trkpt>
      <trkpt lat="46.00062" lon="4.147">
        <ele>397</ele>
        <time>2026-02-01T13:29:09Z</time>
      </trkpt>
      <trkpt lat="46.00045" lon="4.14639">
        <ele>398</ele>
        <time>2026-02-01T13:30:10Z</time>
      </trkpt>
      <trkpt lat="46.00041" lon="4.14616">
        <ele>399</ele>
        <time>2026-02-01T13:30:32Z</time>
      </trkpt>
      <trkpt lat="46.00039" lon="4.14542">
        <ele>400</ele>
        <time>2026-02-01T13:31:40Z</time>
      </trkpt>
      <trkpt lat="46.00038" lon="4.14461">
        <ele>400</ele>
        <time>2026-02-01T13:32:55Z</time>
      </trkpt>
      <trkpt lat="46.00025" lon="4.14315">
        <ele>395</ele>
        <time>2026-02-01T13:35:12Z</time>
      </trkpt>
      <trkpt lat="46.00024" lon="4.14292">
        <ele>396</ele>
        <time>2026-02-01T13:35:33Z</time>
      </trkpt>
      <trkpt lat="46.00018" lon="4.14203">
        <ele>394</ele>
        <time>2026-02-01T13:36:56Z</time>
      </trkpt>
      <trkpt lat="46.00024" lon="4.14149">
        <ele>393</ele>
        <time>2026-02-01T13:37:47Z</time>
      </trkpt>
      <trkpt lat="46.0003" lon="4.14109">
        <ele>393</ele>
        <time>2026-02-01T13:38:25Z</time>
      </trkpt>
      <trkpt lat="46.00048" lon="4.14041">
        <ele>393</ele>
        <time>2026-02-01T13:39:32Z</time>
      </trkpt>
      <trkpt lat="46.00062" lon="4.13987">
        <ele>393</ele>
        <time>2026-02-01T13:40:26Z</time>
      </trkpt>
      <trkpt lat="46.00064" lon="4.1397">
        <ele>392</ele>
        <time>2026-02-01T13:40:42Z</time>
      </trkpt>
      <trkpt lat="46.00064" lon="4.13953">
        <ele>391</ele>
        <time>2026-02-01T13:40:57Z</time>
      </trkpt>
      <trkpt lat="46.00067" lon="4.13918">
        <ele>389</ele>
        <time>2026-02-01T13:41:30Z</time>
      </trkpt>
      <trkpt lat="46.00075" lon="4.13877">
        <ele>388</ele>
        <time>2026-02-01T13:42:09Z</time>
      </trkpt>
      <trkpt lat="46.00082" lon="4.13857">
        <ele>388</ele>
        <time>2026-02-01T13:42:30Z</time>
      </trkpt>
      <trkpt lat="46.0012" lon="4.13765">
        <ele>385</ele>
        <time>2026-02-01T13:44:09Z</time>
      </trkpt>
      <trkpt lat="46.00192" lon="4.13762">
        <ele>388</ele>
        <time>2026-02-01T13:45:46Z</time>
      </trkpt>
      <trkpt lat="46.00227" lon="4.13777">
        <ele>387</ele>
        <time>2026-02-01T13:46:34Z</time>
      </trkpt>
      <trkpt lat="46.00332" lon="4.13821">
        <ele>383</ele>
        <time>2026-02-01T13:49:00Z</time>
      </trkpt>
      <trkpt lat="46.00393" lon="4.13854">
        <ele>382</ele>
        <time>2026-02-01T13:50:27Z</time>
      </trkpt>
      <trkpt lat="46.00487" lon="4.13902">
        <ele>381</ele>
        <time>2026-02-01T13:52:40Z</time>
      </trkpt>
      <trkpt lat="46.00494" lon="4.13903">
        <ele>381</ele>
        <time>2026-02-01T13:52:50Z</time>
      </trkpt>
      <trkpt lat="46.00501" lon="4.13899">
        <ele>381</ele>
        <time>2026-02-01T13:53:00Z</time>
      </trkpt>
      <trkpt lat="46.00509" lon="4.1389">
        <ele>382</ele>
        <time>2026-02-01T13:53:13Z</time>
      </trkpt>
      <trkpt lat="46.00595" lon="4.13768">
        <ele>382</ele>
        <time>2026-02-01T13:55:54Z</time>
      </trkpt>
      <trkpt lat="46.00605" lon="4.13765">
        <ele>383</ele>
        <time>2026-02-01T13:56:08Z</time>
      </trkpt>
      <trkpt lat="46.00613" lon="4.13768">
        <ele>384</ele>
        <time>2026-02-01T13:56:19Z</time>
      </trkpt>
      <trkpt lat="46.00642" lon="4.13806">
        <ele>387</ele>
        <time>2026-02-01T13:57:11Z</time>
      </trkpt>
      <trkpt lat="46.00649" lon="4.13808">
        <ele>388</ele>
        <time>2026-02-01T13:57:21Z</time>
      </trkpt>
      <trkpt lat="46.00737" lon="4.13931">
        <ele>394</ele>
        <time>2026-02-01T14:00:05Z</time>
      </trkpt>
      <trkpt lat="46.00748" lon="4.13934">
        <ele>395</ele>
        <time>2026-02-01T14:00:20Z</time>
      </trkpt>
      <trkpt lat="46.00754" lon="4.13928">
        <ele>395</ele>
        <time>2026-02-01T14:00:29Z</time>
      </trkpt>
      <trkpt lat="46.00775" lon="4.13861">
        <ele>394</ele>
        <time>2026-02-01T14:01:37Z</time>
      </trkpt>
      <trkpt lat="46.00791" lon="4.13824">
        <ele>394</ele>
        <time>2026-02-01T14:02:18Z</time>
      </trkpt>
      <trkpt lat="46.00799" lon="4.13807">
        <ele>393</ele>
        <time>2026-02-01T14:02:37Z</time>
      </trkpt>
      <trkpt lat="46.00805" lon="4.13797">
        <ele>393</ele>
        <time>2026-02-01T14:02:49Z</time>
      </trkpt>
      <trkpt lat="46.0082" lon="4.13783">
        <ele>393</ele>
        <time>2026-02-01T14:03:13Z</time>
      </trkpt>
      <trkpt lat="46.00854" lon="4.13819">
        <ele>394</ele>
        <time>2026-02-01T14:04:09Z</time>
      </trkpt>
      <trkpt lat="46.0087" lon="4.13837">
        <ele>395</ele>
        <time>2026-02-01T14:04:36Z</time>
      </trkpt>
      <trkpt lat="46.00888" lon="4.13854">
        <ele>394</ele>
        <time>2026-02-01T14:05:05Z</time>
      </trkpt>
      <trkpt lat="46.00899" lon="4.1387">
        <ele>394</ele>
        <time>2026-02-01T14:05:26Z</time>
      </trkpt>
      <trkpt lat="46.00907" lon="4.13886">
        <ele>395</ele>
        <time>2026-02-01T14:05:44Z</time>
      </trkpt>
      <trkpt lat="46.00935" lon="4.1395">
        <ele>394</ele>
        <time>2026-02-01T14:06:54Z</time>
      </trkpt>
      <trkpt lat="46.00951" lon="4.13981">
        <ele>393</ele>
        <time>2026-02-01T14:07:30Z</time>
      </trkpt>
      <trkpt lat="46.00978" lon="4.14029">
        <ele>393</ele>
        <time>2026-02-01T14:08:27Z</time>
      </trkpt>
      <trkpt lat="46.00995" lon="4.14057">
        <ele>393</ele>
        <time>2026-02-01T14:09:02Z</time>
      </trkpt>
      <trkpt lat="46.01033" lon="4.14098">
        <ele>395</ele>
        <time>2026-02-01T14:10:05Z</time>
      </trkpt>
      <trkpt lat="46.01047" lon="4.14111">
        <ele>396</ele>
        <time>2026-02-01T14:10:27Z</time>
      </trkpt>
      <trkpt lat="46.01083" lon="4.14135">
        <ele>399</ele>
        <time>2026-02-01T14:11:20Z</time>
      </trkpt>
      <trkpt lat="46.01141" lon="4.1418">
        <ele>402</ele>
        <time>2026-02-01T14:12:48Z</time>
      </trkpt>
      <trkpt lat="46.01167" lon="4.14199">
        <ele>402</ele>
        <time>2026-02-01T14:13:27Z</time>
      </trkpt>
      <trkpt lat="46.01188" lon="4.14165">
        <ele>401</ele>
        <time>2026-02-01T14:14:09Z</time>
      </trkpt>
      <trkpt lat="46.01195" lon="4.14157">
        <ele>400</ele>
        <time>2026-02-01T14:14:21Z</time>
      </trkpt>
      <trkpt lat="46.01259" lon="4.14132">
        <ele>397</ele>
        <time>2026-02-01T14:15:50Z</time>
      </trkpt>
      <trkpt lat="46.01327" lon="4.141">
        <ele>398</ele>
        <time>2026-02-01T14:17:25Z</time>
      </trkpt>
      <trkpt lat="46.01365" lon="4.1409">
        <ele>397</ele>
        <time>2026-02-01T14:18:17Z</time>
      </trkpt>
      <trkpt lat="46.01378" lon="4.14081">
        <ele>397</ele>
        <time>2026-02-01T14:18:36Z</time>
      </trkpt>
      <trkpt lat="46.01418" lon="4.14035">
        <ele>395</ele>
        <time>2026-02-01T14:19:44Z</time>
      </trkpt>
      <trkpt lat="46.01464" lon="4.14009">
        <ele>397</ele>
        <time>2026-02-01T14:20:50Z</time>
      </trkpt>
      <trkpt lat="46.01471" lon="4.14009">
        <ele>397</ele>
        <time>2026-02-01T14:21:00Z</time>
      </trkpt>
      <trkpt lat="46.01476" lon="4.14012">
        <ele>398</ele>
        <time>2026-02-01T14:21:07Z</time>
      </trkpt>
      <trkpt lat="46.01508" lon="4.14055">
        <ele>398</ele>
        <time>2026-02-01T14:22:05Z</time>
      </trkpt>
      <trkpt lat="46.01526" lon="4.14075">
        <ele>398</ele>
        <time>2026-02-01T14:22:36Z</time>
      </trkpt>
      <trkpt lat="46.01559" lon="4.14025">
        <ele>398</ele>
        <time>2026-02-01T14:23:40Z</time>
      </trkpt>
      <trkpt lat="46.01582" lon="4.13987">
        <ele>398</ele>
        <time>2026-02-01T14:24:26Z</time>
      </trkpt>
      <trkpt lat="46.01595" lon="4.13963">
        <ele>396</ele>
        <time>2026-02-01T14:24:54Z</time>
      </trkpt>
      <trkpt lat="46.01624" lon="4.13916">
        <ele>392</ele>
        <time>2026-02-01T14:25:53Z</time>
      </trkpt>
      <trkpt lat="46.01668" lon="4.13861">
        <ele>390</ele>
        <time>2026-02-01T14:27:11Z</time>
      </trkpt>
      <trkpt lat="46.01676" lon="4.13847">
        <ele>389</ele>
        <time>2026-02-01T14:27:27Z</time>
      </trkpt>
      <trkpt lat="46.01685" lon="4.13837">
        <ele>389</ele>
        <time>2026-02-01T14:27:42Z</time>
      </trkpt>
      <trkpt lat="46.01709" lon="4.13853">
        <ele>388</ele>
        <time>2026-02-01T14:28:18Z</time>
      </trkpt>
      <trkpt lat="46.01746" lon="4.13872">
        <ele>386</ele>
        <time>2026-02-01T14:29:10Z</time>
      </trkpt>
      <trkpt lat="46.01771" lon="4.13892">
        <ele>385</ele>
        <time>2026-02-01T14:29:48Z</time>
      </trkpt>
      <trkpt lat="46.01809" lon="4.13898">
        <ele>385</ele>
        <time>2026-02-01T14:30:39Z</time>
      </trkpt>
      <trkpt lat="46.01828" lon="4.13909">
        <ele>385</ele>
        <time>2026-02-01T14:31:07Z</time>
      </trkpt>
      <trkpt lat="46.01866" lon="4.13871">
        <ele>383</ele>
        <time>2026-02-01T14:32:08Z</time>
      </trkpt>
      <trkpt lat="46.01866" lon="4.1386">
        <ele>383</ele>
        <time>2026-02-01T14:32:19Z</time>
      </trkpt>
      <trkpt lat="46.01873" lon="4.13823">
        <ele>383</ele>
        <time>2026-02-01T14:32:54Z</time>
      </trkpt>
      <trkpt lat="46.01899" lon="4.13768">
        <ele>382</ele>
        <time>2026-02-01T14:33:56Z</time>
      </trkpt>
      <trkpt lat="46.01902" lon="4.13732">
        <ele>381</ele>
        <time>2026-02-01T14:34:29Z</time>
      </trkpt>
      <trkpt lat="46.01927" lon="4.13653">
        <ele>379</ele>
        <time>2026-02-01T14:35:50Z</time>
      </trkpt>
      <trkpt lat="46.0195" lon="4.13609">
        <ele>373</ele>
        <time>2026-02-01T14:36:41Z</time>
      </trkpt>
      <trkpt lat="46.01965" lon="4.13603">
        <ele>372</ele>
        <time>2026-02-01T14:37:02Z</time>
      </trkpt>
      <trkpt lat="46.01967" lon="4.13601">
        <ele>371</ele>
        <time>2026-02-01T14:37:05Z</time>
      </trkpt>
      <trkpt lat="46.01981" lon="4.13595">
        <ele>370</ele>
        <time>2026-02-01T14:37:24Z</time>
      </trkpt>
      <trkpt lat="46.02006" lon="4.13597">
        <ele>369</ele>
        <time>2026-02-01T14:37:58Z</time>
      </trkpt>
      <trkpt lat="46.02035" lon="4.13584">
        <ele>367</ele>
        <time>2026-02-01T14:38:38Z</time>
      </trkpt>
      <trkpt lat="46.02048" lon="4.13583">
        <ele>366</ele>
        <time>2026-02-01T14:38:56Z</time>
      </trkpt>
      <trkpt lat="46.02074" lon="4.13592">
        <ele>366</ele>
        <time>2026-02-01T14:39:31Z</time>
      </trkpt>
      <trkpt lat="46.02097" lon="4.13607">
        <ele>364</ele>
        <time>2026-02-01T14:40:05Z</time>
      </trkpt>
      <trkpt lat="46.02115" lon="4.13622">
        <ele>363</ele>
        <time>2026-02-01T14:40:33Z</time>
      </trkpt>
      <trkpt lat="46.02159" lon="4.13649">
        <ele>361</ele>
        <time>2026-02-01T14:41:37Z</time>
      </trkpt>
      <trkpt lat="46.02175" lon="4.13653">
        <ele>359</ele>
        <time>2026-02-01T14:41:58Z</time>
      </trkpt>
      <trkpt lat="46.02177" lon="4.13655">
        <ele>359</ele>
        <time>2026-02-01T14:42:02Z</time>
      </trkpt>
      <trkpt lat="46.0219" lon="4.13653">
        <ele>357</ele>
        <time>2026-02-01T14:42:19Z</time>
      </trkpt>
      <trkpt lat="46.02199" lon="4.13658">
        <ele>356</ele>
        <time>2026-02-01T14:42:32Z</time>
      </trkpt>
      <trkpt lat="46.02206" lon="4.13659">
        <ele>355</ele>
        <time>2026-02-01T14:42:41Z</time>
      </trkpt>
      <trkpt lat="46.02213" lon="4.13656">
        <ele>354</ele>
        <time>2026-02-01T14:42:51Z</time>
      </trkpt>
      <trkpt lat="46.02229" lon="4.13655">
        <ele>352</ele>
        <time>2026-02-01T14:43:12Z</time>
      </trkpt>
      <trkpt lat="46.02245" lon="4.13655">
        <ele>350</ele>
        <time>2026-02-01T14:43:34Z</time>
      </trkpt>
      <trkpt lat="46.02259" lon="4.1365">
        <ele>347</ele>
        <time>2026-02-01T14:43:53Z</time>
      </trkpt>
      <trkpt lat="46.02263" lon="4.1365">
        <ele>347</ele>
        <time>2026-02-01T14:43:58Z</time>
      </trkpt>
      <trkpt lat="46.02274" lon="4.13653">
        <ele>345</ele>
        <time>2026-02-01T14:44:13Z</time>
      </trkpt>
      <trkpt lat="46.02283" lon="4.13653">
        <ele>344</ele>
        <time>2026-02-01T14:44:25Z</time>
      </trkpt>
      <trkpt lat="46.02299" lon="4.13644">
        <ele>341</ele>
        <time>2026-02-01T14:44:48Z</time>
      </trkpt>
      <trkpt lat="46.02303" lon="4.13644">
        <ele>340</ele>
        <time>2026-02-01T14:44:54Z</time>
      </trkpt>
      <trkpt lat="46.02348" lon="4.1364">
        <ele>334</ele>
        <time>2026-02-01T14:45:54Z</time>
      </trkpt>
      <trkpt lat="46.02395" lon="4.13653">
        <ele>331</ele>
        <time>2026-02-01T14:46:58Z</time>
      </trkpt>
      <trkpt lat="46.02424" lon="4.13654">
        <ele>329</ele>
        <time>2026-02-01T14:47:36Z</time>
      </trkpt>
      <trkpt lat="46.02458" lon="4.13651">
        <ele>328</ele>
        <time>2026-02-01T14:48:22Z</time>
      </trkpt>
      <trkpt lat="46.02482" lon="4.13644">
        <ele>327</ele>
        <time>2026-02-01T14:48:54Z</time>
      </trkpt>
      <trkpt lat="46.02514" lon="4.13652">
        <ele>327</ele>
        <time>2026-02-01T14:49:38Z</time>
      </trkpt>
      <trkpt lat="46.02519" lon="4.13657">
        <ele>328</ele>
        <time>2026-02-01T14:49:46Z</time>
      </trkpt>
      <trkpt lat="46.02523" lon="4.1366">
        <ele>328</ele>
        <time>2026-02-01T14:49:52Z</time>
      </trkpt>
      <trkpt lat="46.02522" lon="4.13663">
        <ele>328</ele>
        <time>2026-02-01T14:49:55Z</time>
      </trkpt>
      <trkpt lat="46.02527" lon="4.13669">
        <ele>329</ele>
        <time>2026-02-01T14:50:04Z</time>
      </trkpt>
      <trkpt lat="46.02532" lon="4.13681">
        <ele>329</ele>
        <time>2026-02-01T14:50:17Z</time>
      </trkpt>
      <trkpt lat="46.02538" lon="4.13677">
        <ele>330</ele>
        <time>2026-02-01T14:50:26Z</time>
      </trkpt>
      <trkpt lat="46.02543" lon="4.13677">
        <ele>330</ele>
        <time>2026-02-01T14:50:32Z</time>
      </trkpt>
      <trkpt lat="46.02545" lon="4.13692">
        <ele>331</ele>
        <time>2026-02-01T14:50:46Z</time>
      </trkpt>
      <trkpt lat="46.02539" lon="4.13715">
        <ele>331</ele>
        <time>2026-02-01T14:51:09Z</time>
      </trkpt>
      <trkpt lat="46.0254" lon="4.13723">
        <ele>331</ele>
        <time>2026-02-01T14:51:17Z</time>
      </trkpt>
      <trkpt lat="46.02539" lon="4.13733">
        <ele>332</ele>
        <time>2026-02-01T14:51:26Z</time>
      </trkpt>
      <trkpt lat="46.02535" lon="4.13749">
        <ele>331</ele>
        <time>2026-02-01T14:51:42Z</time>
      </trkpt>
      <trkpt lat="46.02533" lon="4.13761">
        <ele>332</ele>
        <time>2026-02-01T14:51:53Z</time>
      </trkpt>
      <trkpt lat="46.02525" lon="4.13772">
        <ele>331</ele>
        <time>2026-02-01T14:52:08Z</time>
      </trkpt>
      <trkpt lat="46.02517" lon="4.13792">
        <ele>331</ele>
        <time>2026-02-01T14:52:29Z</time>
      </trkpt>
      <trkpt lat="46.02509" lon="4.13822">
        <ele>331</ele>
        <time>2026-02-01T14:52:59Z</time>
      </trkpt>
      <trkpt lat="46.02489" lon="4.13891">
        <ele>335</ele>
        <time>2026-02-01T14:54:08Z</time>
      </trkpt>
      <trkpt lat="46.02477" lon="4.13946">
        <ele>337</ele>
        <time>2026-02-01T14:55:02Z</time>
      </trkpt>
      <trkpt lat="46.02472" lon="4.13981">
        <ele>337</ele>
        <time>2026-02-01T14:55:35Z</time>
      </trkpt>
      <trkpt lat="46.02472" lon="4.14003">
        <ele>338</ele>
        <time>2026-02-01T14:55:55Z</time>
      </trkpt>
      <trkpt lat="46.02476" lon="4.14038">
        <ele>341</ele>
        <time>2026-02-01T14:56:28Z</time>
      </trkpt>
      <trkpt lat="46.02476" lon="4.14059">
        <ele>342</ele>
        <time>2026-02-01T14:56:48Z</time>
      </trkpt>
      <trkpt lat="46.02479" lon="4.14071">
        <ele>344</ele>
        <time>2026-02-01T14:56:59Z</time>
      </trkpt>
      <trkpt lat="46.02483" lon="4.141">
        <ele>346</ele>
        <time>2026-02-01T14:57:27Z</time>
      </trkpt>
      <trkpt lat="46.02487" lon="4.14118">
        <ele>348</ele>
        <time>2026-02-01T14:57:44Z</time>
      </trkpt>
      <trkpt lat="46.02494" lon="4.1414">
        <ele>350</ele>
        <time>2026-02-01T14:58:07Z</time>
      </trkpt>
      <trkpt lat="46.02496" lon="4.14139">
        <ele>350</ele>
        <time>2026-02-01T14:58:10Z</time>
      </trkpt>
      <trkpt lat="46.02501" lon="4.14128">
        <ele>351</ele>
        <time>2026-02-01T14:58:22Z</time>
      </trkpt>
      <trkpt lat="46.02526" lon="4.14104">
        <ele>356</ele>
        <time>2026-02-01T14:59:02Z</time>
      </trkpt>
      <trkpt lat="46.02532" lon="4.14095">
        <ele>357</ele>
        <time>2026-02-01T14:59:13Z</time>
      </trkpt>
      <trkpt lat="46.02538" lon="4.14078">
        <ele>358</ele>
        <time>2026-02-01T14:59:31Z</time>
      </trkpt>
      <trkpt lat="46.02545" lon="4.14064">
        <ele>359</ele>
        <time>2026-02-01T14:59:47Z</time>
      </trkpt>
      <trkpt lat="46.02547" lon="4.14056">
        <ele>359</ele>
        <time>2026-02-01T14:59:55Z</time>
      </trkpt>
      <trkpt lat="46.02555" lon="4.14047">
        <ele>360</ele>
        <time>2026-02-01T15:00:09Z</time>
      </trkpt>
      <trkpt lat="46.02568" lon="4.14023">
        <ele>363</ele>
        <time>2026-02-01T15:00:37Z</time>
      </trkpt>
      <trkpt lat="46.02575" lon="4.14006">
        <ele>364</ele>
        <time>2026-02-01T15:00:55Z</time>
      </trkpt>
      <trkpt lat="46.02589" lon="4.13973">
        <ele>364</ele>
        <time>2026-02-01T15:01:31Z</time>
      </trkpt>
      <trkpt lat="46.02599" lon="4.13959">
        <ele>365</ele>
        <time>2026-02-01T15:01:49Z</time>
      </trkpt>
      <trkpt lat="46.02602" lon="4.13959">
        <ele>365</ele>
        <time>2026-02-01T15:01:53Z</time>
      </trkpt>
      <trkpt lat="46.02609" lon="4.13958">
        <ele>366</ele>
        <time>2026-02-01T15:02:03Z</time>
      </trkpt>
      <trkpt lat="46.02617" lon="4.1396">
        <ele>367</ele>
        <time>2026-02-01T15:02:14Z</time>
      </trkpt>
      <trkpt lat="46.02631" lon="4.1396">
        <ele>369</ele>
        <time>2026-02-01T15:02:32Z</time>
      </trkpt>
      <trkpt lat="46.02646" lon="4.13956">
        <ele>370</ele>
        <time>2026-02-01T15:02:53Z</time>
      </trkpt>
      <trkpt lat="46.02724" lon="4.13923">
        <ele>376</ele>
        <time>2026-02-01T15:04:41Z</time>
      </trkpt>
      <trkpt lat="46.02748" lon="4.13907">
        <ele>378</ele>
        <time>2026-02-01T15:05:17Z</time>
      </trkpt>
      <trkpt lat="46.02762" lon="4.13903">
        <ele>378</ele>
        <time>2026-02-01T15:05:36Z</time>
      </trkpt>
      <trkpt lat="46.0277" lon="4.13905">
        <ele>378</ele>
        <time>2026-02-01T15:05:46Z</time>
      </trkpt>
      <trkpt lat="46.0278" lon="4.13914">
        <ele>378</ele>
        <time>2026-02-01T15:06:02Z</time>
      </trkpt>
      <trkpt lat="46.02797" lon="4.13933">
        <ele>379</ele>
        <time>2026-02-01T15:06:31Z</time>
      </trkpt>
      <trkpt lat="46.02783" lon="4.14101">
        <ele>385</ele>
        <time>2026-02-01T15:09:08Z</time>
      </trkpt>
      <trkpt lat="46.02752" lon="4.14314">
        <ele>389</ele>
        <time>2026-02-01T15:12:29Z</time>
      </trkpt>
      <trkpt lat="46.02747" lon="4.14331">
        <ele>390</ele>
        <time>2026-02-01T15:12:46Z</time>
      </trkpt>
      <trkpt lat="46.02747" lon="4.14334">
        <ele>390</ele>
        <time>2026-02-01T15:12:49Z</time>
      </trkpt>
      <trkpt lat="46.02747" lon="4.14331">
        <ele>390</ele>
        <time>2026-02-01T15:12:52Z</time>
      </trkpt>
      <trkpt lat="46.02746" lon="4.14323">
        <ele>389</ele>
        <time>2026-02-01T15:12:59Z</time>
      </trkpt>
      <trkpt lat="46.02738" lon="4.14315">
        <ele>389</ele>
        <time>2026-02-01T15:13:12Z</time>
      </trkpt>
      <trkpt lat="46.02667" lon="4.14253">
        <ele>382</ele>
        <time>2026-02-01T15:15:03Z</time>
      </trkpt>
      <trkpt lat="46.02658" lon="4.14254">
        <ele>381</ele>
        <time>2026-02-01T15:15:15Z</time>
      </trkpt>
      <trkpt lat="46.02651" lon="4.1426">
        <ele>381</ele>
        <time>2026-02-01T15:15:26Z</time>
      </trkpt>
      <trkpt lat="46.02631" lon="4.14319">
        <ele>381</ele>
        <time>2026-02-01T15:16:27Z</time>
      </trkpt>
      <trkpt lat="46.02593" lon="4.14434">
        <ele>383</ele>
        <time>2026-02-01T15:18:25Z</time>
      </trkpt>
      <trkpt lat="46.02576" lon="4.14607">
        <ele>391</ele>
        <time>2026-02-01T15:21:07Z</time>
      </trkpt>
      <trkpt lat="46.02533" lon="4.14824">
        <ele>401</ele>
        <time>2026-02-01T15:24:36Z</time>
      </trkpt>
      <trkpt lat="46.02531" lon="4.14835">
        <ele>402</ele>
        <time>2026-02-01T15:24:47Z</time>
      </trkpt>
      <trkpt lat="46.02506" lon="4.14964">
        <ele>404</ele>
        <time>2026-02-01T15:26:51Z</time>
      </trkpt>
      <trkpt lat="46.02496" lon="4.15018">
        <ele>405</ele>
        <time>2026-02-01T15:27:42Z</time>
      </trkpt>
      <trkpt lat="46.02477" lon="4.15051">
        <ele>405</ele>
        <time>2026-02-01T15:28:22Z</time>
      </trkpt>
      <trkpt lat="46.02452" lon="4.15104">
        <ele>405</ele>
        <time>2026-02-01T15:29:22Z</time>
      </trkpt>
      <trkpt lat="46.02438" lon="4.15149">
        <ele>405</ele>
        <time>2026-02-01T15:30:07Z</time>
      </trkpt>
      <trkpt lat="46.02427" lon="4.15198">
        <ele>405</ele>
        <time>2026-02-01T15:30:55Z</time>
      </trkpt>
      <trkpt lat="46.02425" lon="4.15216">
        <ele>405</ele>
        <time>2026-02-01T15:31:12Z</time>
      </trkpt>
      <trkpt lat="46.0241" lon="4.15313">
        <ele>406</ele>
        <time>2026-02-01T15:32:44Z</time>
      </trkpt>
      <trkpt lat="46.02403" lon="4.15401">
        <ele>408</ele>
        <time>2026-02-01T15:34:06Z</time>
      </trkpt>
      <trkpt lat="46.02395" lon="4.1547">
        <ele>408</ele>
        <time>2026-02-01T15:35:11Z</time>
      </trkpt>
      <trkpt lat="46.0238" lon="4.15511">
        <ele>408</ele>
        <time>2026-02-01T15:35:54Z</time>
      </trkpt>
      <trkpt lat="46.02326" lon="4.15512">
        <ele>407</ele>
        <time>2026-02-01T15:37:06Z</time>
      </trkpt>
      <trkpt lat="46.02298" lon="4.15505">
        <ele>403</ele>
        <time>2026-02-01T15:37:44Z</time>
      </trkpt>
      <trkpt lat="46.02243" lon="4.15485">
        <ele>397</ele>
        <time>2026-02-01T15:38:59Z</time>
      </trkpt>
      <trkpt lat="46.02238" lon="4.15388">
        <ele>394</ele>
        <time>2026-02-01T15:40:30Z</time>
      </trkpt>
      <trkpt lat="46.02228" lon="4.15292">
        <ele>387</ele>
        <time>2026-02-01T15:41:59Z</time>
      </trkpt>
      <trkpt lat="46.02226" lon="4.15215">
        <ele>381</ele>
        <time>2026-02-01T15:43:11Z</time>
      </trkpt>
      <trkpt lat="46.02219" lon="4.15163">
        <ele>376</ele>
        <time>2026-02-01T15:44:00Z</time>
      </trkpt>
      <trkpt lat="46.02214" lon="4.15147">
        <ele>375</ele>
        <time>2026-02-01T15:44:16Z</time>
      </trkpt>
      <trkpt lat="46.02192" lon="4.15131">
        <ele>371</ele>
        <time>2026-02-01T15:44:49Z</time>
      </trkpt>
      <trkpt lat="46.02169" lon="4.15117">
        <ele>366</ele>
        <time>2026-02-01T15:45:22Z</time>
      </trkpt>
      <trkpt lat="46.02124" lon="4.15087">
        <ele>357</ele>
        <time>2026-02-01T15:46:29Z</time>
      </trkpt>
      <trkpt lat="46.0209" lon="4.15067">
        <ele>349</ele>
        <time>2026-02-01T15:47:18Z</time>
      </trkpt>
      <trkpt lat="46.02054" lon="4.15069">
        <ele>348</ele>
        <time>2026-02-01T15:48:06Z</time>
      </trkpt>
      <trkpt lat="46.02045" lon="4.15096">
        <ele>349</ele>
        <time>2026-02-01T15:48:33Z</time>
      </trkpt>
      <trkpt lat="46.02032" lon="4.15085">
        <ele>348</ele>
        <time>2026-02-01T15:48:54Z</time>
      </trkpt>
      <trkpt lat="46.02022" lon="4.1508">
        <ele>348</ele>
        <time>2026-02-01T15:49:08Z</time>
      </trkpt>
      <trkpt lat="46.0198" lon="4.15029">
        <ele>351</ele>
        <time>2026-02-01T15:50:21Z</time>
      </trkpt>
      <trkpt lat="46.01975" lon="4.15017">
        <ele>351</ele>
        <time>2026-02-01T15:50:34Z</time>
      </trkpt>
      <trkpt lat="46.0197" lon="4.14998">
        <ele>352</ele>
        <time>2026-02-01T15:50:53Z</time>
      </trkpt>
      <trkpt lat="46.01968" lon="4.14926">
        <ele>353</ele>
        <time>2026-02-01T15:52:00Z</time>
      </trkpt>
      <trkpt lat="46.01969" lon="4.14883">
        <ele>352</ele>
        <time>2026-02-01T15:52:39Z</time>
      </trkpt>
      <trkpt lat="46.01964" lon="4.14828">
        <ele>352</ele>
        <time>2026-02-01T15:53:31Z</time>
      </trkpt>
      <trkpt lat="46.01961" lon="4.14793">
        <ele>353</ele>
        <time>2026-02-01T15:54:04Z</time>
      </trkpt>
      <trkpt lat="46.01959" lon="4.14738">
        <ele>353</ele>
        <time>2026-02-01T15:54:55Z</time>
      </trkpt>
      <trkpt lat="46.01956" lon="4.14675">
        <ele>354</ele>
        <time>2026-02-01T15:55:53Z</time>
      </trkpt>
      <trkpt lat="46.01951" lon="4.14646">
        <ele>356</ele>
        <time>2026-02-01T15:56:21Z</time>
      </trkpt>
      <trkpt lat="46.01928" lon="4.14571">
        <ele>365</ele>
        <time>2026-02-01T15:57:37Z</time>
      </trkpt>
      <trkpt lat="46.01919" lon="4.14564">
        <ele>367</ele>
        <time>2026-02-01T15:57:50Z</time>
      </trkpt>
      <trkpt lat="46.0189" lon="4.14559">
        <ele>370</ele>
        <time>2026-02-01T15:58:29Z</time>
      </trkpt>
      <trkpt lat="46.01864" lon="4.14546">
        <ele>372</ele>
        <time>2026-02-01T15:59:06Z</time>
      </trkpt>
      <trkpt lat="46.01835" lon="4.14548">
        <ele>375</ele>
        <time>2026-02-01T15:59:45Z</time>
      </trkpt>
      <trkpt lat="46.01795" lon="4.1456">
        <ele>378</ele>
        <time>2026-02-01T16:00:39Z</time>
      </trkpt>
      <trkpt lat="46.01778" lon="4.14569">
        <ele>379</ele>
        <time>2026-02-01T16:01:04Z</time>
      </trkpt>
      <trkpt lat="46.01748" lon="4.14589">
        <ele>380</ele>
        <time>2026-02-01T16:01:48Z</time>
      </trkpt>
      <trkpt lat="46.01699" lon="4.14583">
        <ele>385</ele>
        <time>2026-02-01T16:02:53Z</time>
      </trkpt>
      <trkpt lat="46.01661" lon="4.14571">
        <ele>389</ele>
        <time>2026-02-01T16:03:45Z</time>
      </trkpt>
      <trkpt lat="46.0163" lon="4.14536">
        <ele>392</ele>
        <time>2026-02-01T16:04:38Z</time>
      </trkpt>
      <trkpt lat="46.01599" lon="4.14491">
        <ele>396</ele>
        <time>2026-02-01T16:05:37Z</time>
      </trkpt>
      <trkpt lat="46.0157" lon="4.14461">
        <ele>398</ele>
        <time>2026-02-01T16:06:24Z</time>
      </trkpt>
      <trkpt lat="46.0155" lon="4.14444">
        <ele>399</ele>
        <time>2026-02-01T16:06:55Z</time>
      </trkpt>
      <trkpt lat="46.01546" lon="4.14442">
        <ele>399</ele>
        <time>2026-02-01T16:07:01Z</time>
      </trkpt>
      <trkpt lat="46.01541" lon="4.1444">
        <ele>399</ele>
        <time>2026-02-01T16:07:08Z</time>
      </trkpt>
      <trkpt lat="46.01508" lon="4.14438">
        <ele>399</ele>
        <time>2026-02-01T16:07:52Z</time>
      </trkpt>
      <trkpt lat="46.01476" lon="4.14433">
        <ele>399</ele>
        <time>2026-02-01T16:08:35Z</time>
      </trkpt>
      <trkpt lat="46.01468" lon="4.1443">
        <ele>399</ele>
        <time>2026-02-01T16:08:46Z</time>
      </trkpt>
      <trkpt lat="46.01445" lon="4.14416">
        <ele>400</ele>
        <time>2026-02-01T16:09:19Z</time>
      </trkpt>
      <trkpt lat="46.01322" lon="4.14305">
        <ele>400</ele>
        <time>2026-02-01T16:12:33Z</time>
      </trkpt>
      <trkpt lat="46.01301" lon="4.14289">
        <ele>400</ele>
        <time>2026-02-01T16:13:05Z</time>
      </trkpt>
      <trkpt lat="46.01279" lon="4.14278">
        <ele>399</ele>
        <time>2026-02-01T16:13:36Z</time>
      </trkpt>
      <trkpt lat="46.01248" lon="4.14265">
        <ele>398</ele>
        <time>2026-02-01T16:14:19Z</time>
      </trkpt>
      <trkpt lat="46.01255" lon="4.14291">
        <ele>399</ele>
        <time>2026-02-01T16:14:45Z</time>
      </trkpt>
      <trkpt lat="46.01272" lon="4.14374">
        <ele>401</ele>
        <time>2026-02-01T16:16:05Z</time>
      </trkpt>
      <trkpt lat="46.0131" lon="4.14473">
        <ele>402</ele>
        <time>2026-02-01T16:17:50Z</time>
      </trkpt>
      <trkpt lat="46.01312" lon="4.14489">
        <ele>401</ele>
        <time>2026-02-01T16:18:05Z</time>
      </trkpt>
      <trkpt lat="46.01314" lon="4.14511">
        <ele>401</ele>
        <time>2026-02-01T16:18:25Z</time>
      </trkpt>
      <trkpt lat="46.01311" lon="4.14531">
        <ele>401</ele>
        <time>2026-02-01T16:18:44Z</time>
      </trkpt>
      <trkpt lat="46.01307" lon="4.14552">
        <ele>401</ele>
        <time>2026-02-01T16:19:04Z</time>
      </trkpt>
      <trkpt lat="46.01305" lon="4.14578">
        <ele>400</ele>
        <time>2026-02-01T16:19:29Z</time>
      </trkpt>
      <trkpt lat="46.01308" lon="4.14595">
        <ele>400</ele>
        <time>2026-02-01T16:19:45Z</time>
      </trkpt>
      <trkpt lat="46.01353" lon="4.14761">
        <ele>403</ele>
        <time>2026-02-01T16:22:30Z</time>
      </trkpt>
      <trkpt lat="46.0137" lon="4.14791">
        <ele>404</ele>
        <time>2026-02-01T16:23:06Z</time>
      </trkpt>
      <trkpt lat="46.01388" lon="4.14816">
        <ele>405</ele>
        <time>2026-02-01T16:23:39Z</time>
      </trkpt>
      <trkpt lat="46.01403" lon="4.14843">
        <ele>406</ele>
        <time>2026-02-01T16:24:11Z</time>
      </trkpt>
      <trkpt lat="46.01413" lon="4.14862">
        <ele>406</ele>
        <time>2026-02-01T16:24:33Z</time>
      </trkpt>
      <trkpt lat="46.01427" lon="4.14895">
        <ele>405</ele>
        <time>2026-02-01T16:25:09Z</time>
      </trkpt>
      <trkpt lat="46.01444" lon="4.14919">
        <ele>405</ele>
        <time>2026-02-01T16:25:41Z</time>
      </trkpt>
      <trkpt lat="46.01462" lon="4.14935">
        <ele>405</ele>
        <time>2026-02-01T16:26:09Z</time>
      </trkpt>
      <trkpt lat="46.01479" lon="4.14943">
        <ele>406</ele>
        <time>2026-02-01T16:26:33Z</time>
      </trkpt>
      <trkpt lat="46.01504" lon="4.14948">
        <ele>405</ele>
        <time>2026-02-01T16:27:07Z</time>
      </trkpt>
      <trkpt lat="46.01546" lon="4.14952">
        <ele>402</ele>
        <time>2026-02-01T16:28:03Z</time>
      </trkpt>
      <trkpt lat="46.01554" lon="4.14967">
        <ele>402</ele>
        <time>2026-02-01T16:28:20Z</time>
      </trkpt>
      <trkpt lat="46.01609" lon="4.15152">
        <ele>392</ele>
        <time>2026-02-01T16:31:27Z</time>
      </trkpt>
      <trkpt lat="46.01611" lon="4.15168">
        <ele>391</ele>
        <time>2026-02-01T16:31:42Z</time>
      </trkpt>
      <trkpt lat="46.01573" lon="4.1531">
        <ele>396</ele>
        <time>2026-02-01T16:34:03Z</time>
      </trkpt>
      <trkpt lat="46.0153" lon="4.15478">
        <ele>403</ele>
        <time>2026-02-01T16:36:49Z</time>
      </trkpt>
      <trkpt lat="46.01504" lon="4.15551">
        <ele>406</ele>
        <time>2026-02-01T16:38:05Z</time>
      </trkpt>
      <trkpt lat="46.016" lon="4.15549">
        <ele>396</ele>
        <time>2026-02-01T16:40:13Z</time>
      </trkpt>
      <trkpt lat="46.01647" lon="4.1555">
        <ele>388</ele>
        <time>2026-02-01T16:41:16Z</time>
      </trkpt>
      <trkpt lat="46.01669" lon="4.158">
        <ele>383</ele>
        <time>2026-02-01T16:45:09Z</time>
      </trkpt>
      <trkpt lat="46.01684" lon="4.15862">
        <ele>379</ele>
        <time>2026-02-01T16:46:10Z</time>
      </trkpt>
      <trkpt lat="46.01611" lon="4.16055">
        <ele>377</ele>
        <time>2026-02-01T16:49:34Z</time>
      </trkpt>
      <trkpt lat="46.01643" lon="4.16086">
        <ele>376</ele>
        <time>2026-02-01T16:50:25Z</time>
      </trkpt>
      <trkpt lat="46.01761" lon="4.1609">
        <ele>389</ele>
        <time>2026-02-01T16:53:03Z</time>
      </trkpt>
      <trkpt lat="46.01822" lon="4.1605">
        <ele>379</ele>
        <time>2026-02-01T16:54:32Z</time>
      </trkpt>
      <trkpt lat="46.0183" lon="4.16091">
        <ele>384</ele>
        <time>2026-02-01T16:55:12Z</time>
      </trkpt>
      <trkpt lat="46.0178" lon="4.16145">
        <ele>393</ele>
        <time>2026-02-01T16:56:35Z</time>
      </trkpt>
      <trkpt lat="46.01741" lon="4.16241">
        <ele>400</ele>
        <time>2026-02-01T16:58:18Z</time>
      </trkpt>
      <trkpt lat="46.01701" lon="4.16351">
        <ele>405</ele>
        <time>2026-02-01T17:00:13Z</time>
      </trkpt>
      <trkpt lat="46.0169" lon="4.16378">
        <ele>405</ele>
        <time>2026-02-01T17:00:42Z</time>
      </trkpt>
      <trkpt lat="46.01635" lon="4.16488">
        <ele>410</ele>
        <time>2026-02-01T17:02:48Z</time>
      </trkpt>
      <trkpt lat="46.01618" lon="4.16519">
        <ele>411</ele>
        <time>2026-02-01T17:03:25Z</time>
      </trkpt>
      <trkpt lat="46.01575" lon="4.16568">
        <ele>413</ele>
        <time>2026-02-01T17:04:38Z</time>
      </trkpt>
      <trkpt lat="46.01531" lon="4.16622">
        <ele>414</ele>
        <time>2026-02-01T17:05:55Z</time>
      </trkpt>
      <trkpt lat="46.01509" lon="4.16655">
        <ele>416</ele>
        <time>2026-02-01T17:06:37Z</time>
      </trkpt>
      <trkpt lat="46.01417" lon="4.16832">
        <ele>420</ele>
        <time>2026-02-01T17:10:02Z</time>
      </trkpt>
      <trkpt lat="46.01396" lon="4.1687">
        <ele>421</ele>
        <time>2026-02-01T17:10:47Z</time>
      </trkpt>
      <trkpt lat="46.01376" lon="4.16904">
        <ele>422</ele>
        <time>2026-02-01T17:11:28Z</time>
      </trkpt>
      <trkpt lat="46.01352" lon="4.1692">
        <ele>423</ele>
        <time>2026-02-01T17:12:04Z</time>
      </trkpt>
      <trkpt lat="46.01342" lon="4.1693">
        <ele>424</ele>
        <time>2026-02-01T17:12:20Z</time>
      </trkpt>
      <trkpt lat="46.01333" lon="4.1695">
        <ele>425</ele>
        <time>2026-02-01T17:12:42Z</time>
      </trkpt>
      <trkpt lat="46.01332" lon="4.16963">
        <ele>425</ele>
        <time>2026-02-01T17:12:54Z</time>
      </trkpt>
      <trkpt lat="46.01172" lon="4.16968">
        <ele>421</ele>
        <time>2026-02-01T17:16:28Z</time>
      </trkpt>
      <trkpt lat="46.01113" lon="4.17043">
        <ele>421</ele>
        <time>2026-02-01T17:18:13Z</time>
      </trkpt>
      <trkpt lat="46.00891" lon="4.16986">
        <ele>429</ele>
        <time>2026-02-01T17:23:14Z</time>
      </trkpt>
      <trkpt lat="46.00858" lon="4.17072">
        <ele>431</ele>
        <time>2026-02-01T17:24:45Z</time>
      </trkpt>
      <trkpt lat="46.00578" lon="4.16967">
        <ele>434</ele>
        <time>2026-02-01T17:31:11Z</time>
      </trkpt>
      <trkpt lat="46.0047" lon="4.16941">
        <ele>436</ele>
        <time>2026-02-01T17:33:37Z</time>
      </trkpt>
      <trkpt lat="46.00463" lon="4.16908">
        <ele>436</ele>
        <time>2026-02-01T17:34:09Z</time>
      </trkpt>
      <trkpt lat="46.0039" lon="4.16899">
        <ele>435</ele>
        <time>2026-02-01T17:35:47Z</time>
      </trkpt>
      <trkpt lat="46.00336" lon="4.16905">
        <ele>434</ele>
        <time>2026-02-01T17:36:59Z</time>
      </trkpt>
      <trkpt lat="46.0031" lon="4.17032">
        <ele>433</ele>
        <time>2026-02-01T17:39:02Z</time>
      </trkpt>
      <trkpt lat="46.00258" lon="4.17025">
        <ele>431</ele>
        <time>2026-02-01T17:40:12Z</time>
      </trkpt>
      <trkpt lat="46.00088" lon="4.16937">
        <ele>418</ele>
        <time>2026-02-01T17:44:13Z</time>
      </trkpt>
      <trkpt lat="46.00079" lon="4.16934">
        <ele>417</ele>
        <time>2026-02-01T17:44:25Z</time>
      </trkpt>
      <trkpt lat="46.00008" lon="4.16892">
        <ele>409</ele>
        <time>2026-02-01T17:46:07Z</time>
      </trkpt>
      <trkpt lat="45.9997" lon="4.16872">
        <ele>408</ele>
        <time>2026-02-01T17:47:01Z</time>
      </trkpt>
      <trkpt lat="45.99947" lon="4.16866">
        <ele>407</ele>
        <time>2026-02-01T17:47:33Z</time>
      </trkpt>
      <trkpt lat="45.9993" lon="4.16865">
        <ele>406</ele>
        <time>2026-02-01T17:47:55Z</time>
      </trkpt>
      <trkpt lat="45.99918" lon="4.16866">
        <ele>406</ele>
        <time>2026-02-01T17:48:11Z</time>
      </trkpt>
      <trkpt lat="45.99894" lon="4.16872">
        <ele>407</ele>
        <time>2026-02-01T17:48:44Z</time>
      </trkpt>
      <trkpt lat="45.99888" lon="4.16872">
        <ele>408</ele>
        <time>2026-02-01T17:48:52Z</time>
      </trkpt>
      <trkpt lat="45.99871" lon="4.16848">
        <ele>408</ele>
        <time>2026-02-01T17:49:24Z</time>
      </trkpt>
      <trkpt lat="45.99855" lon="4.16832">
        <ele>409</ele>
        <time>2026-02-01T17:49:50Z</time>
      </trkpt>
      <trkpt lat="45.99844" lon="4.16825">
        <ele>409</ele>
        <time>2026-02-01T17:50:06Z</time>
      </trkpt>
      <trkpt lat="45.99811" lon="4.16818">
        <ele>410</ele>
        <time>2026-02-01T17:50:50Z</time>
      </trkpt>
      <trkpt lat="45.99773" lon="4.16807">
        <ele>412</ele>
        <time>2026-02-01T17:51:42Z</time>
      </trkpt>
      <trkpt lat="45.99751" lon="4.16803">
        <ele>414</ele>
        <time>2026-02-01T17:52:11Z</time>
      </trkpt>
      <trkpt lat="45.99734" lon="4.16804">
        <ele>415</ele>
        <time>2026-02-01T17:52:34Z</time>
      </trkpt>
      <trkpt lat="45.9972" lon="4.1681">
        <ele>416</ele>
        <time>2026-02-01T17:52:54Z</time>
      </trkpt>
      <trkpt lat="45.99708" lon="4.16822">
        <ele>417</ele>
        <time>2026-02-01T17:53:13Z</time>
      </trkpt>
      <trkpt lat="45.99657" lon="4.16884">
        <ele>424</ele>
        <time>2026-02-01T17:54:42Z</time>
      </trkpt>
      <trkpt lat="45.99631" lon="4.16905">
        <ele>425</ele>
        <time>2026-02-01T17:55:22Z</time>
      </trkpt>
      <trkpt lat="45.99628" lon="4.16948">
        <ele>426</ele>
        <time>2026-02-01T17:56:02Z</time>
      </trkpt>
      <trkpt lat="45.99614" lon="4.17046">
        <ele>427</ele>
        <time>2026-02-01T17:57:35Z</time>
      </trkpt>
      <trkpt lat="45.99627" lon="4.17082">
        <ele>428</ele>
        <time>2026-02-01T17:58:12Z</time>
      </trkpt>
      <trkpt lat="45.99648" lon="4.17137">
        <ele>429</ele>
        <time>2026-02-01T17:59:11Z</time>
      </trkpt>
      <trkpt lat="45.99656" lon="4.17188">
        <ele>429</ele>
        <time>2026-02-01T17:59:59Z</time>
      </trkpt>
      <trkpt lat="45.99664" lon="4.17206">
        <ele>430</ele>
        <time>2026-02-01T18:00:19Z</time>
      </trkpt>
      <trkpt lat="45.99668" lon="4.1722">
        <ele>430</ele>
        <time>2026-02-01T18:00:33Z</time>
      </trkpt>
      <trkpt lat="45.9967" lon="4.17227">
        <ele>430</ele>
        <time>2026-02-01T18:00:40Z</time>
      </trkpt>
      <trkpt lat="45.99672" lon="4.17241">
        <ele>430</ele>
        <time>2026-02-01T18:00:53Z</time>
      </trkpt>
      <trkpt lat="45.99674" lon="4.17274">
        <ele>431</ele>
        <time>2026-02-01T18:01:24Z</time>
      </trkpt>
      <trkpt lat="45.99674" lon="4.17334">
        <ele>432</ele>
        <time>2026-02-01T18:02:20Z</time>
      </trkpt>
      <trkpt lat="45.99676" lon="4.17344">
        <ele>432</ele>
        <time>2026-02-01T18:02:29Z</time>
      </trkpt>
      <trkpt lat="45.99688" lon="4.17363">
        <ele>432</ele>
        <time>2026-02-01T18:02:53Z</time>
      </trkpt>
      <trkpt lat="45.99701" lon="4.17378">
        <ele>432</ele>
        <time>2026-02-01T18:03:15Z</time>
      </trkpt>
      <trkpt lat="45.99748" lon="4.17414">
        <ele>432</ele>
        <time>2026-02-01T18:04:26Z</time>
      </trkpt>
      <trkpt lat="45.99796" lon="4.17466">
        <ele>432</ele>
        <time>2026-02-01T18:05:46Z</time>
      </trkpt>
      <trkpt lat="45.99799" lon="4.17492">
        <ele>433</ele>
        <time>2026-02-01T18:06:11Z</time>
      </trkpt>
      <trkpt lat="45.99805" lon="4.1751">
        <ele>433</ele>
        <time>2026-02-01T18:06:29Z</time>
      </trkpt>
      <trkpt lat="45.99815" lon="4.17544">
        <ele>435</ele>
        <time>2026-02-01T18:07:04Z</time>
      </trkpt>
      <trkpt lat="45.99824" lon="4.1759">
        <ele>436</ele>
        <time>2026-02-01T18:07:48Z</time>
      </trkpt>
      <trkpt lat="45.9985" lon="4.1761">
        <ele>436</ele>
        <time>2026-02-01T18:08:27Z</time>
      </trkpt>
      <trkpt lat="45.99907" lon="4.17643">
        <ele>435</ele>
        <time>2026-02-01T18:09:49Z</time>
      </trkpt>
      <trkpt lat="45.99924" lon="4.17643">
        <ele>436</ele>
        <time>2026-02-01T18:10:12Z</time>
      </trkpt>
      <trkpt lat="45.99943" lon="4.17641">
        <ele>436</ele>
        <time>2026-02-01T18:10:37Z</time>
      </trkpt>
      <trkpt lat="45.99956" lon="4.17637">
        <ele>437</ele>
        <time>2026-02-01T18:10:55Z</time>
      </trkpt>
    </trkseg>
  </trk>
</gpx>